sensor_id;sensor_type;location;lat;lon;timestamp;temperature;humidity
4820;DHT22;2424;49.696;6.630;2022-09-21T00:04:49;9.10;99.90
4820;DHT22;2424;49.696;6.630;2022-09-21T00:10:10;9.00;99.90
4820;DHT22;2424;49.696;6.630;2022-09-21T00:15:33;8.90;99.90
4820;DHT22;2424;49.696;6.630;2022-09-21T00:20:57;8.90;99.90
4820;DHT22;2424;49.696;6.630;2022-09-21T00:26:21;8.80;99.90
4820;DHT22;2424;49.696;6.630;2022-09-21T00:31:43;8.80;99.90
4820;DHT22;2424;49.696;6.630;2022-09-21T00:37:06;8.80;99.90
4820;DHT22;2424;49.696;6.630;2022-09-21T00:42:30;8.70;99.90
4820;DHT22;2424;49.696;6.630;2022-09-21T00:47:53;8.60;99.90
4820;DHT22;2424;49.696;6.630;2022-09-21T00:53:17;8.70;99.90
4820;DHT22;2424;49.696;6.630;2022-09-21T00:58:43;8.60;99.90
4820;DHT22;2424;49.696;6.630;2022-09-21T01:04:07;8.50;99.90
4820;DHT22;2424;49.696;6.630;2022-09-21T01:09:31;8.50;99.90
4820;DHT22;2424;49.696;6.630;2022-09-21T01:15:18;8.50;99.90
4820;DHT22;2424;49.696;6.630;2022-09-21T01:32:29;8.30;99.90
4820;DHT22;2424;49.696;6.630;2022-09-21T01:37:56;8.30;99.90
4820;DHT22;2424;49.696;6.630;2022-09-21T01:43:22;8.30;99.90
4820;DHT22;2424;49.696;6.630;2022-09-21T01:48:49;8.30;99.90
4820;DHT22;2424;49.696;6.630;2022-09-21T01:54:18;8.20;99.90
4820;DHT22;2424;49.696;6.630;2022-09-21T01:59:48;8.20;99.90
4820;DHT22;2424;49.696;6.630;2022-09-21T02:05:14;8.10;99.90
4820;DHT22;2424;49.696;6.630;2022-09-21T02:10:41;8.00;99.90
4820;DHT22;2424;49.696;6.630;2022-09-21T02:16:22;8.00;99.90
4820;DHT22;2424;49.696;6.630;2022-09-21T02:22:00;7.90;99.90
4820;DHT22;2424;49.696;6.630;2022-09-21T02:27:30;7.90;99.90
4820;DHT22;2424;49.696;6.630;2022-09-21T02:32:59;7.70;99.90
4820;DHT22;2424;49.696;6.630;2022-09-21T02:38:30;7.70;99.90
4820;DHT22;2424;49.696;6.630;2022-09-21T02:44:00;7.70;99.90
4820;DHT22;2424;49.696;6.630;2022-09-21T02:49:28;7.70;99.90
4820;DHT22;2424;49.696;6.630;2022-09-21T02:54:54;7.70;99.90
4820;DHT22;2424;49.696;6.630;2022-09-21T03:00:16;7.80;99.90
4820;DHT22;2424;49.696;6.630;2022-09-21T03:05:38;7.60;99.90
4820;DHT22;2424;49.696;6.630;2022-09-21T03:11:02;7.60;99.90
4820;DHT22;2424;49.696;6.630;2022-09-21T03:16:24;7.50;99.90
4820;DHT22;2424;49.696;6.630;2022-09-21T03:21:46;7.40;99.90
4820;DHT22;2424;49.696;6.630;2022-09-21T03:27:10;7.50;99.90
4820;DHT22;2424;49.696;6.630;2022-09-21T03:32:32;7.40;99.90
4820;DHT22;2424;49.696;6.630;2022-09-21T03:37:54;7.40;99.90
4820;DHT22;2424;49.696;6.630;2022-09-21T03:43:18;7.50;99.90
4820;DHT22;2424;49.696;6.630;2022-09-21T03:48:40;7.40;99.90
4820;DHT22;2424;49.696;6.630;2022-09-21T03:54:07;7.40;99.90
4820;DHT22;2424;49.696;6.630;2022-09-21T03:59:30;7.40;99.90
4820;DHT22;2424;49.696;6.630;2022-09-21T04:04:52;7.30;99.90
4820;DHT22;2424;49.696;6.630;2022-09-21T04:10:16;7.30;99.90
4820;DHT22;2424;49.696;6.630;2022-09-21T04:15:41;7.30;99.90
4820;DHT22;2424;49.696;6.630;2022-09-21T04:21:03;7.30;99.90
4820;DHT22;2424;49.696;6.630;2022-09-21T04:26:27;7.20;99.90
4820;DHT22;2424;49.696;6.630;2022-09-21T04:31:51;7.20;99.90
4820;DHT22;2424;49.696;6.630;2022-09-21T04:37:13;7.10;99.90
4820;DHT22;2424;49.696;6.630;2022-09-21T04:42:35;7.10;99.90
4820;DHT22;2424;49.696;6.630;2022-09-21T04:47:58;7.20;99.90
4820;DHT22;2424;49.696;6.630;2022-09-21T04:53:20;7.20;99.90
4820;DHT22;2424;49.696;6.630;2022-09-21T04:58:43;7.10;99.90
4820;DHT22;2424;49.696;6.630;2022-09-21T05:04:07;7.00;99.90
4820;DHT22;2424;49.696;6.630;2022-09-21T05:09:29;7.00;99.90
4820;DHT22;2424;49.696;6.630;2022-09-21T05:15:09;6.90;99.90
4820;DHT22;2424;49.696;6.630;2022-09-21T05:20:33;6.90;99.90
4820;DHT22;2424;49.696;6.630;2022-09-21T05:25:55;6.80;99.90
4820;DHT22;2424;49.696;6.630;2022-09-21T05:31:29;6.90;99.90
4820;DHT22;2424;49.696;6.630;2022-09-21T05:36:59;6.90;99.90
4820;DHT22;2424;49.696;6.630;2022-09-21T05:42:23;6.90;99.90
4820;DHT22;2424;49.696;6.630;2022-09-21T05:48:03;6.90;99.90
4820;DHT22;2424;49.696;6.630;2022-09-21T05:53:44;6.90;99.90
4820;DHT22;2424;49.696;6.630;2022-09-21T05:59:26;6.80;99.90
4820;DHT22;2424;49.696;6.630;2022-09-21T06:04:51;6.80;99.90
4820;DHT22;2424;49.696;6.630;2022-09-21T06:10:16;6.80;99.90
4820;DHT22;2424;49.696;6.630;2022-09-21T06:15:39;6.80;99.90
4820;DHT22;2424;49.696;6.630;2022-09-21T06:21:01;6.70;99.90
4820;DHT22;2424;49.696;6.630;2022-09-21T06:26:26;6.60;99.90
4820;DHT22;2424;49.696;6.630;2022-09-21T06:31:48;6.60;99.90
4820;DHT22;2424;49.696;6.630;2022-09-21T06:37:11;6.70;99.90
4820;DHT22;2424;49.696;6.630;2022-09-21T06:42:34;6.70;99.90
4820;DHT22;2424;49.696;6.630;2022-09-21T06:47:56;6.80;99.90
4820;DHT22;2424;49.696;6.630;2022-09-21T06:53:18;6.80;99.90
4820;DHT22;2424;49.696;6.630;2022-09-21T06:58:42;6.80;99.90
4820;DHT22;2424;49.696;6.630;2022-09-21T07:04:04;6.80;99.90
4820;DHT22;2424;49.696;6.630;2022-09-21T07:09:28;7.00;99.90
4820;DHT22;2424;49.696;6.630;2022-09-21T07:14:52;6.90;99.90
4820;DHT22;2424;49.696;6.630;2022-09-21T07:20:14;7.00;99.90
4820;DHT22;2424;49.696;6.630;2022-09-21T07:25:36;7.00;99.90
4820;DHT22;2424;49.696;6.630;2022-09-21T07:31:05;7.20;99.90
4820;DHT22;2424;49.696;6.630;2022-09-21T07:36:27;7.30;99.90
4820;DHT22;2424;49.696;6.630;2022-09-21T07:41:49;7.30;99.90
4820;DHT22;2424;49.696;6.630;2022-09-21T07:47:12;7.30;99.90
4820;DHT22;2424;49.696;6.630;2022-09-21T07:52:34;7.50;99.90
4820;DHT22;2424;49.696;6.630;2022-09-21T07:57:56;7.70;99.90
4820;DHT22;2424;49.696;6.630;2022-09-21T08:03:37;7.80;99.90
4820;DHT22;2424;49.696;6.630;2022-09-21T08:08:59;7.90;99.90
4820;DHT22;2424;49.696;6.630;2022-09-21T08:14:21;8.00;99.90
4820;DHT22;2424;49.696;6.630;2022-09-21T08:19:45;8.10;99.90
4820;DHT22;2424;49.696;6.630;2022-09-21T08:25:08;8.30;99.90
4820;DHT22;2424;49.696;6.630;2022-09-21T08:30:30;8.40;99.90
4820;DHT22;2424;49.696;6.630;2022-09-21T08:35:56;8.50;99.90
4820;DHT22;2424;49.696;6.630;2022-09-21T08:41:21;8.60;99.90
4820;DHT22;2424;49.696;6.630;2022-09-21T08:46:46;8.80;99.90
4820;DHT22;2424;49.696;6.630;2022-09-21T08:52:16;8.90;99.90
4820;DHT22;2424;49.696;6.630;2022-09-21T08:57:39;9.10;99.90
4820;DHT22;2424;49.696;6.630;2022-09-21T09:03:17;9.20;99.90
4820;DHT22;2424;49.696;6.630;2022-09-21T09:09:01;9.50;99.90
4820;DHT22;2424;49.696;6.630;2022-09-21T09:14:42;9.70;99.90
4820;DHT22;2424;49.696;6.630;2022-09-21T09:20:11;9.80;99.90
4820;DHT22;2424;49.696;6.630;2022-09-21T09:25:38;10.00;99.90
4820;DHT22;2424;49.696;6.630;2022-09-21T09:31:05;10.30;99.90
4820;DHT22;2424;49.696;6.630;2022-09-21T09:36:32;10.30;99.90
4820;DHT22;2424;49.696;6.630;2022-09-21T09:53:50;11.00;99.90
4820;DHT22;2424;49.696;6.630;2022-09-21T09:59:20;11.30;99.90
4820;DHT22;2424;49.696;6.630;2022-09-21T10:04:53;11.40;99.90
4820;DHT22;2424;49.696;6.630;2022-09-21T10:10:39;11.70;99.90
4820;DHT22;2424;49.696;6.630;2022-09-21T10:16:04;11.90;99.90
4820;DHT22;2424;49.696;6.630;2022-09-21T10:21:34;12.00;99.90
4820;DHT22;2424;49.696;6.630;2022-09-21T10:27:03;12.10;99.90
4820;DHT22;2424;49.696;6.630;2022-09-21T10:32:26;12.40;99.90
4820;DHT22;2424;49.696;6.630;2022-09-21T10:38:08;12.60;99.90
4820;DHT22;2424;49.696;6.630;2022-09-21T10:43:33;12.80;99.90
4820;DHT22;2424;49.696;6.630;2022-09-21T10:48:56;12.90;99.90
4820;DHT22;2424;49.696;6.630;2022-09-21T10:54:22;13.10;99.90
4820;DHT22;2424;49.696;6.630;2022-09-21T10:59:45;13.20;99.90
4820;DHT22;2424;49.696;6.630;2022-09-21T11:05:12;13.40;99.90
4820;DHT22;2424;49.696;6.630;2022-09-21T11:10:44;13.50;99.90
4820;DHT22;2424;49.696;6.630;2022-09-21T11:16:12;13.60;99.90
4820;DHT22;2424;49.696;6.630;2022-09-21T11:21:42;13.90;99.90
4820;DHT22;2424;49.696;6.630;2022-09-21T11:27:08;14.10;99.90
4820;DHT22;2424;49.696;6.630;2022-09-21T11:32:42;14.30;99.90
4820;DHT22;2424;49.696;6.630;2022-09-21T11:38:12;14.50;99.90
4820;DHT22;2424;49.696;6.630;2022-09-21T11:44:11;14.20;99.90
4820;DHT22;2424;49.696;6.630;2022-09-21T11:49:53;14.10;99.90
4820;DHT22;2424;49.696;6.630;2022-09-21T12:01:16;14.30;99.90
4820;DHT22;2424;49.696;6.630;2022-09-21T12:06:48;14.30;99.90
4820;DHT22;2424;49.696;6.630;2022-09-21T12:12:17;14.40;99.90
4820;DHT22;2424;49.696;6.630;2022-09-21T12:17:48;14.40;99.90
4820;DHT22;2424;49.696;6.630;2022-09-21T12:23:16;14.60;99.90
4820;DHT22;2424;49.696;6.630;2022-09-21T12:28:41;15.00;99.90
4820;DHT22;2424;49.696;6.630;2022-09-21T12:34:12;14.90;99.90
4820;DHT22;2424;49.696;6.630;2022-09-21T12:39:42;14.90;99.90
4820;DHT22;2424;49.696;6.630;2022-09-21T12:45:14;14.90;99.90
4820;DHT22;2424;49.696;6.630;2022-09-21T12:50:41;15.10;99.90
4820;DHT22;2424;49.696;6.630;2022-09-21T12:56:08;15.70;99.90
4820;DHT22;2424;49.696;6.630;2022-09-21T13:01:36;16.20;99.90
4820;DHT22;2424;49.696;6.630;2022-09-21T13:07:25;16.60;99.90
4820;DHT22;2424;49.696;6.630;2022-09-21T13:12:52;17.10;99.90
4820;DHT22;2424;49.696;6.630;2022-09-21T13:18:21;16.90;99.90
4820;DHT22;2424;49.696;6.630;2022-09-21T13:23:53;17.40;99.90
4820;DHT22;2424;49.696;6.630;2022-09-21T13:29:29;17.10;99.90
4820;DHT22;2424;49.696;6.630;2022-09-21T13:34:52;16.80;99.90
4820;DHT22;2424;49.696;6.630;2022-09-21T13:40:35;16.40;99.90
4820;DHT22;2424;49.696;6.630;2022-09-21T13:45:57;16.80;99.90
4820;DHT22;2424;49.696;6.630;2022-09-21T13:51:19;17.30;99.90
4820;DHT22;2424;49.696;6.630;2022-09-21T13:56:44;17.20;99.90
4820;DHT22;2424;49.696;6.630;2022-09-21T14:02:23;16.70;99.90
4820;DHT22;2424;49.696;6.630;2022-09-21T14:07:53;16.50;99.90
4820;DHT22;2424;49.696;6.630;2022-09-21T14:13:33;16.20;99.90
4820;DHT22;2424;49.696;6.630;2022-09-21T14:18:55;16.20;99.90
4820;DHT22;2424;49.696;6.630;2022-09-21T14:24:19;16.10;99.90
4820;DHT22;2424;49.696;6.630;2022-09-21T14:29:48;16.10;99.90
4820;DHT22;2424;49.696;6.630;2022-09-21T14:35:15;16.10;99.90
4820;DHT22;2424;49.696;6.630;2022-09-21T14:40:45;16.60;99.90
4820;DHT22;2424;49.696;6.630;2022-09-21T14:46:32;16.70;99.90
4820;DHT22;2424;49.696;6.630;2022-09-21T14:52:02;16.90;99.90
4820;DHT22;2424;49.696;6.630;2022-09-21T14:57:34;17.10;99.90
4820;DHT22;2424;49.696;6.630;2022-09-21T15:03:21;16.80;99.90
4820;DHT22;2424;49.696;6.630;2022-09-21T15:08:55;17.30;99.90
4820;DHT22;2424;49.696;6.630;2022-09-21T15:14:42;17.50;99.90
4820;DHT22;2424;49.696;6.630;2022-09-21T15:20:16;17.50;99.90
4820;DHT22;2424;49.696;6.630;2022-09-21T15:25:40;17.40;99.90
4820;DHT22;2424;49.696;6.630;2022-09-21T15:31:03;17.50;99.90
4820;DHT22;2424;49.696;6.630;2022-09-21T15:36:29;17.50;99.90
4820;DHT22;2424;49.696;6.630;2022-09-21T15:42:13;17.40;99.90
4820;DHT22;2424;49.696;6.630;2022-09-21T15:47:37;17.50;99.90
4820;DHT22;2424;49.696;6.630;2022-09-21T15:53:11;17.70;99.90
4820;DHT22;2424;49.696;6.630;2022-09-21T15:58:37;17.70;99.90
4820;DHT22;2424;49.696;6.630;2022-09-21T16:04:05;17.60;99.90
4820;DHT22;2424;49.696;6.630;2022-09-21T16:09:37;17.50;99.90
4820;DHT22;2424;49.696;6.630;2022-09-21T16:15:00;17.70;99.90
4820;DHT22;2424;49.696;6.630;2022-09-21T16:20:22;20.10;99.10
4820;DHT22;2424;49.696;6.630;2022-09-21T16:25:52;19.90;98.10
4820;DHT22;2424;49.696;6.630;2022-09-21T16:31:25;18.20;99.60
4820;DHT22;2424;49.696;6.630;2022-09-21T16:36:50;17.20;99.90
4820;DHT22;2424;49.696;6.630;2022-09-21T16:42:15;16.60;99.90
4820;DHT22;2424;49.696;6.630;2022-09-21T16:47:38;16.30;99.90
4820;DHT22;2424;49.696;6.630;2022-09-21T16:53:00;16.00;99.90
4820;DHT22;2424;49.696;6.630;2022-09-21T16:58:24;15.80;99.90
4820;DHT22;2424;49.696;6.630;2022-09-21T17:03:47;15.80;99.90
4820;DHT22;2424;49.696;6.630;2022-09-21T17:09:21;15.80;99.90
4820;DHT22;2424;49.696;6.630;2022-09-21T17:14:45;15.60;99.90
4820;DHT22;2424;49.696;6.630;2022-09-21T17:20:16;15.50;99.90
4820;DHT22;2424;49.696;6.630;2022-09-21T17:25:40;15.30;99.90
4820;DHT22;2424;49.696;6.630;2022-09-21T17:31:04;15.10;99.90
4820;DHT22;2424;49.696;6.630;2022-09-21T17:36:28;14.90;99.90
4820;DHT22;2424;49.696;6.630;2022-09-21T17:41:53;14.60;99.90
4820;DHT22;2424;49.696;6.630;2022-09-21T17:47:19;14.40;99.90
4820;DHT22;2424;49.696;6.630;2022-09-21T17:52:43;14.20;99.90
4820;DHT22;2424;49.696;6.630;2022-09-21T17:58:37;14.00;99.90
4820;DHT22;2424;49.696;6.630;2022-09-21T18:04:03;13.90;99.90
4820;DHT22;2424;49.696;6.630;2022-09-21T18:09:26;13.70;99.90
4820;DHT22;2424;49.696;6.630;2022-09-21T18:14:52;13.60;99.90
4820;DHT22;2424;49.696;6.630;2022-09-21T18:20:25;13.50;99.90
4820;DHT22;2424;49.696;6.630;2022-09-21T18:25:53;13.30;99.90
4820;DHT22;2424;49.696;6.630;2022-09-21T18:31:38;13.20;99.90
4820;DHT22;2424;49.696;6.630;2022-09-21T18:37:12;13.00;99.90
4820;DHT22;2424;49.696;6.630;2022-09-21T18:42:41;12.90;99.90
4820;DHT22;2424;49.696;6.630;2022-09-21T18:48:20;12.90;99.90
4820;DHT22;2424;49.696;6.630;2022-09-21T18:53:46;12.80;99.90
4820;DHT22;2424;49.696;6.630;2022-09-21T18:59:10;12.80;99.90
4820;DHT22;2424;49.696;6.630;2022-09-21T19:04:34;12.80;99.90
4820;DHT22;2424;49.696;6.630;2022-09-21T19:10:06;12.70;99.90
4820;DHT22;2424;49.696;6.630;2022-09-21T19:15:39;12.70;99.90
4820;DHT22;2424;49.696;6.630;2022-09-21T19:21:11;12.60;99.90
4820;DHT22;2424;49.696;6.630;2022-09-21T19:26:46;12.60;99.90
4820;DHT22;2424;49.696;6.630;2022-09-21T19:32:13;12.50;99.90
4820;DHT22;2424;49.696;6.630;2022-09-21T19:37:36;12.40;99.90
4820;DHT22;2424;49.696;6.630;2022-09-21T19:43:12;12.30;99.90
4820;DHT22;2424;49.696;6.630;2022-09-21T19:48:41;12.10;99.90
4820;DHT22;2424;49.696;6.630;2022-09-21T19:54:09;11.80;99.90
4820;DHT22;2424;49.696;6.630;2022-09-21T19:59:52;11.70;99.90
4820;DHT22;2424;49.696;6.630;2022-09-21T20:05:21;11.60;99.90
4820;DHT22;2424;49.696;6.630;2022-09-21T20:11:03;11.40;99.90
4820;DHT22;2424;49.696;6.630;2022-09-21T20:16:39;11.30;99.90
4820;DHT22;2424;49.696;6.630;2022-09-21T20:22:10;11.20;99.90
4820;DHT22;2424;49.696;6.630;2022-09-21T20:27:37;11.10;99.90
4820;DHT22;2424;49.696;6.630;2022-09-21T20:33:03;11.00;99.90
4820;DHT22;2424;49.696;6.630;2022-09-21T20:38:26;10.90;99.90
4820;DHT22;2424;49.696;6.630;2022-09-21T20:43:48;10.80;99.90
4820;DHT22;2424;49.696;6.630;2022-09-21T20:49:12;10.80;99.90
4820;DHT22;2424;49.696;6.630;2022-09-21T20:54:35;10.60;99.90
4820;DHT22;2424;49.696;6.630;2022-09-21T20:59:57;10.40;99.90
4820;DHT22;2424;49.696;6.630;2022-09-21T21:05:21;10.50;99.90
4820;DHT22;2424;49.696;6.630;2022-09-21T21:10:44;10.40;99.90
4820;DHT22;2424;49.696;6.630;2022-09-21T21:16:07;10.30;99.90
4820;DHT22;2424;49.696;6.630;2022-09-21T21:21:30;10.20;99.90
4820;DHT22;2424;49.696;6.630;2022-09-21T21:26:54;10.10;99.90
4820;DHT22;2424;49.696;6.630;2022-09-21T21:32:17;10.00;99.90
4820;DHT22;2424;49.696;6.630;2022-09-21T21:37:40;9.80;99.90
4820;DHT22;2424;49.696;6.630;2022-09-21T21:43:02;9.80;99.90
4820;DHT22;2424;49.696;6.630;2022-09-21T21:48:24;9.70;99.90
4820;DHT22;2424;49.696;6.630;2022-09-21T21:53:48;9.60;99.90
4820;DHT22;2424;49.696;6.630;2022-09-21T21:59:10;9.50;99.90
4820;DHT22;2424;49.696;6.630;2022-09-21T22:04:32;9.50;99.90
4820;DHT22;2424;49.696;6.630;2022-09-21T22:09:55;9.40;99.90
4820;DHT22;2424;49.696;6.630;2022-09-21T22:15:17;9.30;99.90
4820;DHT22;2424;49.696;6.630;2022-09-21T22:20:39;9.30;99.90
4820;DHT22;2424;49.696;6.630;2022-09-21T22:26:06;9.20;99.90
4820;DHT22;2424;49.696;6.630;2022-09-21T22:31:30;9.10;99.90
4820;DHT22;2424;49.696;6.630;2022-09-21T22:36:53;9.10;99.90
4820;DHT22;2424;49.696;6.630;2022-09-21T22:42:17;9.10;99.90
4820;DHT22;2424;49.696;6.630;2022-09-21T22:47:39;8.90;99.90
4820;DHT22;2424;49.696;6.630;2022-09-21T22:53:02;8.90;99.90
4820;DHT22;2424;49.696;6.630;2022-09-21T22:58:25;8.80;99.90
4820;DHT22;2424;49.696;6.630;2022-09-21T23:03:48;8.70;99.90
4820;DHT22;2424;49.696;6.630;2022-09-21T23:09:13;8.60;99.90
4820;DHT22;2424;49.696;6.630;2022-09-21T23:14:36;8.60;99.90
4820;DHT22;2424;49.696;6.630;2022-09-21T23:19:58;8.50;99.90
4820;DHT22;2424;49.696;6.630;2022-09-21T23:25:20;8.40;99.90
4820;DHT22;2424;49.696;6.630;2022-09-21T23:30:44;8.40;99.90
4820;DHT22;2424;49.696;6.630;2022-09-21T23:36:07;8.40;99.90
4820;DHT22;2424;49.696;6.630;2022-09-21T23:41:31;8.30;99.90
4820;DHT22;2424;49.696;6.630;2022-09-21T23:46:55;8.20;99.90
4820;DHT22;2424;49.696;6.630;2022-09-21T23:52:17;8.20;99.90
4820;DHT22;2424;49.696;6.630;2022-09-21T23:57:39;8.10;99.90
